Time;durP1;ratioP1;P1;durP2;ratioP2;P2;SDS_P1;SDS_P2;PMS_P1;PMS_P2;Temp;Humidity;BMP_temperature;BMP_pressure;BME280_temperature;BME280_humidity;BME280_pressure;Samples;Min_cycle;Max_cycle;Signal;HPM_P1;HPM_P2
2022/07/05 00:01:01;;;;;;;8.05;5.30;;;;;;;20.09;89.26;99756.44;5071814;28;20075;-78
2022/07/05 00:03:28;;;;;;;5.95;4.97;;;;;;;20.13;89.18;99749.91;5071861;28;20084;-78
2022/07/05 00:05:54;;;;;;;8.80;5.43;;;;;;;20.07;88.83;99745.16;5071910;28;20020;-78
2022/07/05 00:08:19;;;;;;;6.28;5.13;;;;;;;20.07;89.19;99753.91;5071668;28;20051;-78
2022/07/05 00:10:45;;;;;;;9.52;5.68;;;;;;;20.02;89.48;99742.91;5072037;28;20029;-78
2022/07/05 00:13:11;;;;;;;7.47;5.22;;;;;;;20.06;89.52;99752.25;5071540;28;20040;-78
2022/07/05 00:15:36;;;;;;;8.38;5.30;;;;;;;20.00;89.62;99744.81;5070334;28;20029;-78
2022/07/05 00:18:02;;;;;;;7.88;5.30;;;;;;;20.05;89.84;99752.38;5071668;28;20104;-78
2022/07/05 00:20:28;;;;;;;5.97;4.63;;;;;;;20.01;89.79;99745.66;5070514;28;20499;-78
2022/07/05 00:22:53;;;;;;;5.68;5.13;;;;;;;20.03;89.59;99759.59;5071645;28;20103;-78
2022/07/05 00:25:19;;;;;;;9.68;5.32;;;;;;;20.02;89.68;99755.28;5071502;28;20540;-78
2022/07/05 00:27:44;;;;;;;7.20;4.72;;;;;;;20.00;90.01;99750.13;5071488;28;20430;-78
2022/07/05 00:30:10;;;;;;;9.70;5.50;;;;;;;20.05;90.32;99752.38;5071272;28;20054;-78
2022/07/05 00:32:36;;;;;;;5.93;5.03;;;;;;;20.01;90.44;99749.13;5072176;28;20043;-79
2022/07/05 00:35:03;;;;;;;8.15;5.63;;;;;;;19.98;90.61;99749.41;5070121;28;20597;-78
2022/07/05 00:37:29;;;;;;;6.30;5.70;;;;;;;19.87;91.11;99734.44;5071616;28;20075;-78
2022/07/05 00:39:54;;;;;;;8.40;5.38;;;;;;;19.88;91.53;99749.31;5070103;28;20056;-78
2022/07/05 00:42:19;;;;;;;7.65;5.57;;;;;;;19.85;91.19;99744.31;5071282;28;20292;-78
2022/07/05 00:44:45;;;;;;;8.88;5.35;;;;;;;19.79;90.95;99738.69;5071307;28;20372;-78
2022/07/05 00:47:12;;;;;;;7.72;5.18;;;;;;;19.82;90.82;99744.56;5071138;28;20024;-78
2022/07/05 00:49:38;;;;;;;7.65;5.43;;;;;;;19.84;90.39;99753.19;5071782;28;20016;-78
2022/07/05 00:52:05;;;;;;;8.30;5.13;;;;;;;19.84;90.52;99749.72;5074776;28;20472;-78
2022/07/05 00:54:34;;;;;;;7.63;5.53;;;;;;;19.79;90.16;99747.47;5075145;28;20033;-78
2022/07/05 00:57:00;;;;;;;7.10;5.65;;;;;;;19.78;90.00;99745.78;5074909;28;20032;-79
2022/07/05 00:59:26;;;;;;;5.90;5.38;;;;;;;19.65;90.13;99735.41;5074866;28;20078;-79
2022/07/05 01:01:52;;;;;;;5.30;4.80;;;;;;;19.66;90.34;99737.06;5074848;28;20025;-78
2022/07/05 01:04:17;;;;;;;5.78;5.03;;;;;;;19.71;89.93;99741.97;5074560;28;20593;-78
2022/07/05 01:06:46;;;;;;;5.30;4.80;;;;;;;19.65;89.76;99743.31;5074805;28;20031;-78
2022/07/05 01:09:13;;;;;;;12.38;5.07;;;;;;;19.65;89.88;99737.22;5074569;28;20068;-78
2022/07/05 01:11:40;;;;;;;6.35;5.10;;;;;;;19.64;89.67;99736.38;5074751;28;20472;-78
2022/07/05 01:14:10;;;;;;;6.38;5.18;;;;;;;19.64;89.65;99743.47;5074399;28;20090;-78
2022/07/05 01:16:37;;;;;;;;;;;;;;;19.62;89.87;99743.56;5075305;28;20028;-78
2022/07/05 01:19:06;;;;;;;5.00;4.60;;;;;;;19.59;90.20;99743.81;5074370;28;19908;-78
2022/07/05 01:21:33;;;;;;;8.15;4.97;;;;;;;19.58;89.58;99739.47;5074552;28;20480;-78
2022/07/05 01:24:00;;;;;;;11.60;5.45;;;;;;;19.50;90.16;99727.88;5074923;28;20027;-78
2022/07/05 01:26:26;;;;;;;7.07;5.95;;;;;;;19.45;90.46;99726.44;5074295;28;20119;-78
2022/07/05 01:28:51;;;;;;;5.68;5.10;;;;;;;19.50;90.20;99741.06;5074717;28;20412;-78
2022/07/05 01:31:16;;;;;;;8.05;5.30;;;;;;;19.43;90.07;99725.75;5073023;28;20433;-78
2022/07/05 01:33:42;;;;;;;5.85;5.22;;;;;;;19.41;90.26;99721.53;5074486;28;20028;-78
2022/07/05 01:36:10;;;;;;;5.65;4.97;;;;;;;19.40;90.56;99719.88;5074186;28;20085;-78
2022/07/05 01:38:36;;;;;;;6.75;5.18;;;;;;;19.40;90.53;99736.56;5074347;28;20021;-78
2022/07/05 01:41:02;;;;;;;5.65;5.00;;;;;;;19.34;90.55;99733.56;5074140;28;20032;-78
2022/07/05 01:43:27;;;;;;;6.93;5.25;;;;;;;19.38;90.56;99740.28;5074362;28;20099;-78
2022/07/05 01:45:56;;;;;;;10.60;5.78;;;;;;;19.36;90.78;99747.50;5073030;28;20174;-78
2022/07/05 01:48:22;;;;;;;9.23;5.25;;;;;;;19.32;90.62;99740.78;5074026;28;20029;-78
2022/07/05 01:51:00;;;;;;;5.43;5.03;;;;;;;19.23;91.05;99736.25;5074246;28;20029;-78
2022/07/05 01:53:30;;;;;;;6.22;5.15;;;;;;;19.23;91.73;99739.72;5073793;28;20032;-78
2022/07/05 01:56:02;;;;;;;6.40;4.90;;;;;;;19.18;91.44;99737.47;5074149;28;20032;-78
2022/07/05 01:58:30;;;;;;;5.60;4.93;;;;;;;19.18;91.41;99745.38;5073870;28;20113;-78
2022/07/05 02:00:56;;;;;;;5.47;4.90;;;;;;;19.20;91.75;99738.16;5073846;28;20051;-78
2022/07/05 02:03:22;;;;;;;10.25;5.55;;;;;;;19.16;91.81;99742.00;5072242;28;20055;-78
2022/07/05 02:05:49;;;;;;;6.20;5.55;;;;;;;19.17;92.03;99746.34;5073725;28;20058;-78
2022/07/05 02:08:16;;;;;;;6.38;5.07;;;;;;;19.05;92.33;99735.94;5072134;28;20396;-78
2022/07/05 02:10:42;;;;;;;6.18;5.50;;;;;;;19.05;92.90;99749.16;5072549;28;20027;-78
2022/07/05 02:13:08;;;;;;;6.55;5.57;;;;;;;19.00;93.57;99751.28;5073948;28;20024;-78
2022/07/05 02:15:36;;;;;;;8.70;5.68;;;;;;;18.95;94.42;99755.13;5072167;28;20028;-78
2022/07/05 02:18:03;;;;;;;6.80;5.18;;;;;;;18.88;95.22;99753.97;5073859;28;20028;-78
2022/07/05 02:20:29;;;;;;;9.88;5.28;;;;;;;18.83;95.55;99748.19;5071950;28;20082;-78
2022/07/05 02:22:55;;;;;;;7.43;5.82;;;;;;;18.85;96.14;99758.66;5071978;28;20542;-78
2022/07/05 02:25:20;;;;;;;7.78;6.28;;;;;;;18.75;96.44;99761.19;5073555;28;20112;-78
2022/07/05 02:27:46;;;;;;;9.82;5.68;;;;;;;18.75;97.17;99760.31;5072154;28;20055;-78
2022/07/05 02:30:12;;;;;;;7.80;5.63;;;;;;;18.73;97.60;99756.97;5073142;28;20070;-78
2022/07/05 02:32:37;;;;;;;11.18;6.25;;;;;;;18.73;97.96;99760.44;5073507;28;20077;-78
2022/07/05 02:35:04;;;;;;;8.43;6.03;;;;;;;18.66;97.94;99759.22;5071873;28;20035;-78
2022/07/05 02:37:30;;;;;;;9.13;6.50;;;;;;;18.69;98.36;99764.25;5072804;28;20119;-78
2022/07/05 02:39:55;;;;;;;8.45;5.72;;;;;;;18.67;98.48;99756.47;5073297;28;20104;-78
2022/07/05 02:42:21;;;;;;;8.35;5.68;;;;;;;18.65;98.58;99755.72;5073070;28;20031;-78
2022/07/05 02:44:47;;;;;;;7.50;5.88;;;;;;;18.70;99.06;99768.59;5073047;28;20020;-78
2022/07/05 02:47:12;;;;;;;7.60;6.75;;;;;;;18.66;99.16;99764.47;5072776;28;20029;-78
2022/07/05 02:49:37;;;;;;;7.70;6.47;;;;;;;18.67;99.78;99767.03;5072880;28;20086;-78
2022/07/05 02:52:03;;;;;;;7.20;5.50;;;;;;;18.65;100.00;99766.28;5072758;28;20021;-78
2022/07/05 02:54:28;;;;;;;10.95;6.75;;;;;;;18.65;100.00;99770.72;5072415;28;20487;-78
2022/07/05 02:56:54;;;;;;;8.45;6.13;;;;;;;18.67;100.00;99764.38;5073131;28;20074;-78
2022/07/05 02:59:19;;;;;;;7.55;6.80;;;;;;;18.66;100.00;99761.84;5072488;28;20371;-78
2022/07/05 03:01:45;;;;;;;11.00;6.57;;;;;;;18.62;100.00;99752.50;5072586;28;20028;-78
2022/07/05 03:04:10;;;;;;;8.10;6.35;;;;;;;18.67;100.00;99758.28;5072125;28;20556;-78
2022/07/05 03:06:36;;;;;;;7.10;6.38;;;;;;;18.68;100.00;99755.50;5072318;28;20029;-78
2022/07/05 03:09:03;;;;;;;8.40;6.00;;;;;;;18.68;100.00;99765.22;5071389;28;20119;-78
2022/07/05 03:11:29;;;;;;;11.88;6.70;;;;;;;18.64;100.00;99776.97;5071027;28;20495;-78
2022/07/05 03:13:54;;;;;;;10.35;6.70;;;;;;;18.52;100.00;99773.47;5070740;28;20029;-78
2022/07/05 03:16:21;;;;;;;7.28;6.57;;;;;;;18.48;100.00;99773.84;5072221;28;20415;-78
2022/07/05 03:18:47;;;;;;;8.23;7.38;;;;;;;18.57;100.00;99791.59;5072366;28;20062;-78
2022/07/05 03:21:12;;;;;;;9.77;7.30;;;;;;;18.58;100.00;99795.91;5071927;28;20021;-78
2022/07/05 03:23:37;;;;;;;10.88;6.78;;;;;;;18.59;100.00;99792.31;5072395;28;20032;-78
2022/07/05 03:26:03;;;;;;;9.23;7.22;;;;;;;18.59;100.00;99800.22;5072210;28;20024;-78
2022/07/05 03:28:28;;;;;;;8.30;6.97;;;;;;;18.61;100.00;99800.94;5072219;28;20376;-78
2022/07/05 03:30:54;;;;;;;8.05;6.90;;;;;;;18.58;100.00;99799.41;5072187;28;20081;-78
2022/07/05 03:33:19;;;;;;;8.05;6.70;;;;;;;18.57;100.00;99802.97;5071928;28;20454;-78
2022/07/05 03:35:44;;;;;;;9.07;6.70;;;;;;;18.65;100.00;99808.50;5072016;28;20495;-78
2022/07/05 03:38:10;;;;;;;8.15;7.28;;;;;;;18.62;100.00;99808.72;5070840;28;20036;-78
2022/07/05 03:40:35;;;;;;;8.20;7.15;;;;;;;18.63;100.00;99820.97;5072202;28;20028;-78
2022/07/05 03:43:01;;;;;;;9.40;7.10;;;;;;;18.60;100.00;99821.22;5072065;28;20012;-78
2022/07/05 03:45:26;;;;;;;8.30;7.45;;;;;;;18.68;100.00;99831.19;5071898;28;20031;-78
2022/07/05 03:47:52;;;;;;;12.73;7.20;;;;;;;18.66;100.00;99830.44;5072029;28;20027;-78
2022/07/05 03:50:17;;;;;;;9.45;7.25;;;;;;;18.67;100.00;99832.97;5071732;28;20376;-78
2022/07/05 03:52:42;;;;;;;8.65;7.80;;;;;;;18.65;100.00;99837.50;5072230;28;20435;-78
2022/07/05 03:55:08;;;;;;;8.45;7.55;;;;;;;18.60;100.00;99844.94;5072184;28;20449;-78
2022/07/05 03:57:34;;;;;;;11.77;7.47;;;;;;;18.61;100.00;99845.78;5071827;28;20021;-78
2022/07/05 03:59:59;;;;;;;12.50;8.20;;;;;;;18.61;100.00;99849.25;5072246;28;20035;-78
2022/07/05 04:02:25;;;;;;;11.20;7.95;;;;;;;18.61;100.00;99846.63;5071589;28;20016;-78
2022/07/05 04:04:50;;;;;;;8.20;7.50;;;;;;;18.61;100.00;99848.44;5070057;28;20524;-78
2022/07/05 04:07:15;;;;;;;9.30;8.40;;;;;;;18.54;100.00;99842.78;5071694;28;20028;-78
2022/07/05 04:09:41;;;;;;;10.20;8.70;;;;;;;18.53;100.00;99840.25;5070568;28;20083;-78
2022/07/05 04:12:07;;;;;;;10.10;7.75;;;;;;;18.53;100.00;99837.63;5071846;28;20021;-78
2022/07/05 04:14:32;;;;;;;11.60;7.70;;;;;;;18.54;100.00;99842.78;5070266;28;20028;-78
2022/07/05 04:16:58;;;;;;;9.45;7.10;;;;;;;18.45;100.00;99828.47;5072424;28;20040;-78
2022/07/05 04:19:23;;;;;;;9.27;8.13;;;;;;;18.53;100.00;99841.09;5070011;28;20119;-78
2022/07/05 04:21:48;;;;;;;12.73;8.30;;;;;;;18.55;100.00;99851.53;5071872;28;20371;-78
2022/07/05 04:24:14;;;;;;;9.95;8.63;;;;;;;18.58;100.00;99851.28;5070247;28;20074;-78
2022/07/05 04:26:39;;;;;;;10.15;8.27;;;;;;;18.53;100.00;99846.38;5075447;28;20052;-78
2022/07/05 04:29:05;;;;;;;11.57;8.70;;;;;;;18.51;100.00;99852.75;5075661;28;20039;-78
2022/07/05 04:31:30;;;;;;;9.63;8.68;;;;;;;18.50;100.00;99857.19;5075344;28;20111;-78
2022/07/05 04:33:56;;;;;;;10.18;9.18;;;;;;;18.57;100.00;99866.28;5074153;28;20511;-78
2022/07/05 04:36:21;;;;;;;9.50;8.10;;;;;;;18.55;100.00;99862.94;5075131;28;20024;-78
2022/07/05 04:38:47;;;;;;;8.80;8.00;;;;;;;18.56;100.00;99863.78;5075433;28;20024;-78
2022/07/05 04:41:12;;;;;;;9.52;8.70;;;;;;;18.57;100.00;99863.66;5075548;28;20579;-78
2022/07/05 04:43:38;;;;;;;10.20;8.63;;;;;;;18.61;100.00;99870.38;5075060;28;20032;-78
2022/07/05 04:46:03;;;;;;;8.93;7.72;;;;;;;18.59;100.00;99860.91;5075272;28;20081;-78
2022/07/05 04:48:28;;;;;;;10.98;7.82;;;;;;;18.64;100.00;99871.94;5073601;28;20081;-78
2022/07/05 04:50:54;;;;;;;14.93;8.43;;;;;;;18.58;100.00;99867.97;5075109;28;20063;-78
2022/07/05 04:53:19;;;;;;;11.55;8.93;;;;;;;18.61;100.00;99857.19;5074852;28;20021;-78
2022/07/05 04:55:45;;;;;;;9.57;8.68;;;;;;;18.61;100.00;99856.34;5073892;28;20028;-78
2022/07/05 04:58:11;;;;;;;9.50;8.60;;;;;;;18.60;100.00;99859.94;5075393;28;20097;-78
2022/07/05 05:00:37;;;;;;;13.10;8.45;;;;;;;18.61;100.00;99859.81;5074862;28;20108;-78
2022/07/05 05:03:02;;;;;;;9.38;8.38;;;;;;;18.57;100.00;99862.81;5074738;28;20130;-78
2022/07/05 05:05:28;;;;;;;12.10;8.80;;;;;;;18.50;100.00;99866.84;5074525;28;20103;-78
2022/07/05 05:07:53;;;;;;;12.63;8.50;;;;;;;18.52;100.00;99873.72;5073493;28;20094;-78
2022/07/05 05:10:18;;;;;;;10.10;9.05;;;;;;;18.45;100.00;99867.22;5073491;28;20079;-78
2022/07/05 05:12:44;;;;;;;11.32;8.82;;;;;;;18.48;100.00;99872.25;5074837;28;20124;-78
2022/07/05 05:15:09;;;;;;;10.23;9.23;;;;;;;18.49;100.00;99868.66;5074826;28;20529;-78
2022/07/05 05:17:37;;;;;;;9.90;8.80;;;;;;;18.47;100.00;99881.13;5074579;28;20033;-78
2022/07/05 05:20:05;;;;;;;10.35;9.38;;;;;;;18.46;100.00;99887.38;5074749;28;20451;-78
2022/07/05 05:22:30;;;;;;;10.02;9.02;;;;;;;18.48;100.00;99889.88;5074585;28;20122;-77
2022/07/05 05:24:55;;;;;;;10.60;8.82;;;;;;;18.43;100.00;99885.81;5074703;28;20379;-78
2022/07/05 05:27:21;;;;;;;10.13;9.13;;;;;;;18.51;100.00;99889.66;5073067;28;20036;-78
2022/07/05 05:29:46;;;;;;;20.02;9.90;;;;;;;18.41;100.00;99879.81;5074511;28;20070;-77
2022/07/05 05:32:11;;;;;;;13.73;10.43;;;;;;;18.38;100.00;99880.03;5074416;28;20487;-77
2022/07/05 05:34:37;;;;;;;12.18;9.82;;;;;;;18.31;100.00;99884.09;5074161;28;20120;-78
2022/07/05 05:37:03;;;;;;;10.07;9.05;;;;;;;18.27;100.00;99872.09;5074042;28;20098;-78
2022/07/05 05:39:28;;;;;;;13.70;10.57;;;;;;;18.31;100.00;99873.53;5074020;28;20056;-78
2022/07/05 05:41:53;;;;;;;12.68;10.90;;;;;;;18.29;100.00;99864.91;5074280;28;20082;-78
2022/07/05 05:44:19;;;;;;;11.20;9.88;;;;;;;18.24;100.00;99856.47;5072704;28;20029;-78
2022/07/05 05:46:44;;;;;;;9.85;8.90;;;;;;;18.26;100.00;99856.38;5074166;28;20031;-78
2022/07/05 05:49:10;;;;;;;10.05;9.05;;;;;;;18.27;100.00;99858.06;5074064;28;20032;-77
2022/07/05 05:51:35;;;;;;;11.63;10.50;;;;;;;18.23;100.00;99859.25;5072725;28;20472;-78
2022/07/05 05:54:01;;;;;;;11.25;9.00;;;;;;;18.18;100.00;99856.97;5072864;28;20119;-78
2022/07/05 05:56:26;;;;;;;10.63;9.55;;;;;;;18.22;100.00;99863.69;5074110;28;20097;-78
2022/07/05 05:58:52;;;;;;;10.52;8.20;;;;;;;18.19;100.00;99869.19;5074011;28;20021;-78
2022/07/05 06:01:17;;;;;;;10.45;9.35;;;;;;;18.20;100.00;99876.13;5074248;28;20037;-78
2022/07/05 06:03:43;;;;;;;10.57;9.48;;;;;;;18.17;100.00;99869.31;5073346;28;20166;-78
2022/07/05 06:06:08;;;;;;;10.43;9.20;;;;;;;18.10;100.00;99862.78;5071217;28;20111;-78
2022/07/05 06:08:34;;;;;;;13.85;9.55;;;;;;;18.05;100.00;99858.84;5053578;28;20021;-78
2022/07/05 06:10:59;;;;;;;8.07;7.25;;;;;;;18.06;100.00;99871.06;5053526;28;20371;-78
2022/07/05 06:13:27;;;;;;;9.38;7.30;;;;;;;18.00;100.00;99864.44;5069302;28;20033;-79
2022/07/05 06:15:53;;;;;;;5.82;5.22;;;;;;;18.06;100.00;99885.06;5059050;28;20028;-78
2022/07/05 06:18:18;;;;;;;6.43;5.30;;;;;;;18.04;100.00;99876.44;5066810;28;20034;-78
2022/07/05 06:20:44;;;;;;;6.28;5.00;;;;;;;18.08;100.00;99887.59;5073453;28;20024;-78
2022/07/05 06:23:09;;;;;;;6.13;4.03;;;;;;;18.12;100.00;99899.59;5073598;28;20035;-79
2022/07/05 06:25:36;;;;;;;6.80;4.22;;;;;;;18.15;100.00;99905.47;5072809;28;20166;-79
2022/07/05 06:28:04;;;;;;;4.45;4.05;;;;;;;18.17;100.00;99903.56;5052112;28;20029;-79
2022/07/05 06:30:31;;;;;;;4.88;4.38;;;;;;;18.14;100.00;99903.78;5051787;28;20033;-79
2022/07/05 06:32:57;;;;;;;4.38;3.92;;;;;;;18.18;100.00;99899.13;5051793;28;20388;-77
2022/07/05 06:35:23;;;;;;;4.47;3.90;;;;;;;18.32;100.00;99919.19;5052883;28;20028;-79
2022/07/05 06:37:58;;;;;;;6.78;4.68;;;;;;;18.41;100.00;99902.69;5052935;28;20036;-79
2022/07/05 06:40:29;;;;;;;4.60;4.20;;;;;;;18.51;100.00;99906.31;5052817;28;20032;-79
2022/07/05 06:42:56;;;;;;;4.57;4.03;;;;;;;18.68;100.00;99912.97;5051390;28;20017;-79
2022/07/05 06:45:22;;;;;;;4.57;4.00;;;;;;;18.77;100.00;99919.38;5051017;28;20037;-79
2022/07/05 06:48:00;;;;;;;5.75;3.92;;;;;;;18.82;100.00;99918.03;5052407;28;20078;-79
2022/07/05 06:50:27;;;;;;;4.20;3.80;;;;;;;18.89;100.00;99927.19;5052798;28;20373;-80
2022/07/05 06:52:53;;;;;;;5.65;4.18;;;;;;;18.97;100.00;99929.25;5053261;28;20048;-79
2022/07/05 06:55:19;;;;;;;5.45;3.88;;;;;;;18.99;100.00;99922.03;5052964;28;20033;-79
2022/07/05 06:57:45;;;;;;;4.68;4.18;;;;;;;19.06;100.00;99917.13;5051246;28;20029;-79
2022/07/05 07:00:11;;;;;;;4.22;3.83;;;;;;;19.05;100.00;99918.94;5052943;28;20110;-79
2022/07/05 07:02:36;;;;;;;4.43;4.03;;;;;;;19.08;100.00;99917.84;5052283;28;20032;-79
2022/07/05 07:05:02;;;;;;;4.30;3.75;;;;;;;19.06;100.00;99920.59;5052718;28;20029;-79
2022/07/05 07:10:14;;;;;;;7.25;3.80;;;;;;;19.07;100.00;99913.53;5052875;28;20127;-79
2022/07/05 07:12:39;;;;;;;5.72;4.30;;;;;;;19.10;100.00;99919.41;5051198;28;20520;-79
2022/07/05 07:15:05;;;;;;;5.15;4.10;;;;;;;19.22;100.00;99935.28;5052475;28;20027;-79
2022/07/05 07:17:30;;;;;;;6.85;4.40;;;;;;;19.13;100.00;99942.94;5052337;28;20366;-79
2022/07/05 07:19:56;;;;;;;5.05;4.32;;;;;;;19.15;100.00;99938.38;5052529;28;20091;-79
2022/07/05 07:22:21;;;;;;;5.40;4.80;;;;;;;19.15;100.00;99943.66;5052351;28;20037;-79
2022/07/05 07:24:47;;;;;;;5.65;4.47;;;;;;;19.18;100.00;99940.78;5051945;28;20061;-79
2022/07/05 07:27:12;;;;;;;6.50;4.43;;;;;;;19.27;100.00;99948.94;5051176;28;20031;-79
2022/07/05 07:29:39;;;;;;;5.95;3.50;;;;;;;19.22;100.00;99949.31;5050710;28;20066;-79
2022/07/05 07:32:06;;;;;;;4.95;3.85;;;;;;;19.33;100.00;99949.28;5052572;28;20033;-79
2022/07/05 07:34:32;;;;;;;4.38;3.05;;;;;;;19.44;100.00;99962.50;5052216;28;20029;-79
2022/07/05 07:36:58;;;;;;;4.47;3.78;;;;;;;19.53;100.00;99962.75;5050866;28;20025;-79
2022/07/05 07:39:24;;;;;;;3.85;3.47;;;;;;;19.56;100.00;99966.00;5050703;28;20032;-79
2022/07/05 07:41:50;;;;;;;4.20;3.80;;;;;;;19.58;100.00;99973.78;5052149;28;20036;-79
2022/07/05 07:44:16;;;;;;;6.13;4.03;;;;;;;19.60;100.00;99969.22;5050732;28;20025;-79
2022/07/05 07:46:41;;;;;;;7.68;4.35;;;;;;;19.59;100.00;99968.41;5051575;28;20498;-79
2022/07/05 07:49:08;;;;;;;4.97;4.35;;;;;;;19.57;100.00;99959.75;5052161;28;20036;-79
2022/07/05 07:51:34;;;;;;;4.15;3.75;;;;;;;19.53;100.00;99954.81;5050212;28;20037;-79
2022/07/05 07:53:59;;;;;;;4.25;3.85;;;;;;;19.45;100.00;99958.06;5051633;28;20538;-79
2022/07/05 07:56:25;;;;;;;9.00;4.80;;;;;;;19.38;100.00;99959.50;5051576;28;20033;-78
2022/07/05 07:58:51;;;;;;;6.40;4.25;;;;;;;19.27;100.00;99960.34;5051434;28;20025;-79
2022/07/05 08:01:16;;;;;;;6.40;4.43;;;;;;;19.27;100.00;99956.88;5051539;28;20094;-78
2022/07/05 08:03:42;;;;;;;6.45;4.70;;;;;;;19.20;100.00;99957.31;5050985;28;20614;-79
2022/07/05 08:06:10;;;;;;;6.90;3.95;;;;;;;19.22;100.00;99962.50;5051230;28;20044;-79
2022/07/05 08:08:37;;;;;;;6.07;4.30;;;;;;;19.21;100.00;99966.09;5068122;28;20380;-78
2022/07/05 08:11:02;;;;;;;5.25;4.50;;;;;;;19.23;100.00;99969.47;5051882;28;20507;-77
2022/07/05 08:13:29;;;;;;;5.13;4.63;;;;;;;19.17;100.00;99965.50;5052009;28;20037;-78
2022/07/05 08:15:55;;;;;;;7.38;4.82;;;;;;;19.21;100.00;99976.66;5068913;28;20032;-76
2022/07/05 08:23:48;;;;;;;7.43;5.38;;;;;;;19.13;100.00;99974.63;5068580;28;20040;-77
2022/07/05 08:26:14;;;;;;;8.20;6.78;;;;;;;18.99;100.00;99972.19;5068866;28;20032;-78
2022/07/05 08:28:39;;;;;;;10.07;6.60;;;;;;;18.84;100.00;99970.72;5068641;28;20033;-78
2022/07/05 08:31:05;;;;;;;10.45;6.82;;;;;;;18.75;100.00;99979.31;5051763;28;20028;-78
2022/07/05 08:33:30;;;;;;;7.53;6.43;;;;;;;18.72;100.00;99985.69;5068857;28;20044;-79
2022/07/05 08:35:56;;;;;;;8.20;6.60;;;;;;;18.73;100.00;99974.16;5069018;28;20040;-78
2022/07/05 08:38:21;;;;;;;9.10;7.18;;;;;;;18.60;100.00;99973.38;5068834;28;20037;-79
2022/07/05 08:40:50;;;;;;;8.15;7.35;;;;;;;18.52;100.00;99971.31;5051362;28;20045;-79
2022/07/05 08:43:16;;;;;;;7.95;7.00;;;;;;;18.45;100.00;99963.00;5050948;28;20036;-79
2022/07/05 08:45:45;;;;;;;8.90;6.75;;;;;;;18.44;100.00;99971.03;5050859;28;20033;-79
2022/07/05 08:48:12;;;;;;;6.50;5.88;;;;;;;18.42;100.00;99959.78;5049677;28;20061;-79
2022/07/05 08:50:39;;;;;;;5.72;5.22;;;;;;;18.38;100.00;99963.59;5049776;28;20510;-78
2022/07/05 08:53:06;;;;;;;9.80;5.75;;;;;;;18.45;100.00;99972.72;5051357;28;20090;-79
2022/07/05 08:55:32;;;;;;;6.97;4.97;;;;;;;18.36;100.00;99976.88;5049611;28;20453;-79
2022/07/05 08:57:58;;;;;;;5.68;4.22;;;;;;;18.37;100.00;99981.22;5051006;28;20079;-79
2022/07/05 09:00:23;;;;;;;4.10;3.70;;;;;;;18.59;100.00;99982.25;5051318;28;20100;-78
2022/07/05 09:02:50;;;;;;;7.28;4.60;;;;;;;18.74;100.00;99983.75;5050481;28;20025;-78
2022/07/05 09:05:18;;;;;;;5.95;3.70;;;;;;;18.85;100.00;99978.53;5049673;28;20082;-77
2022/07/05 09:08:05;;;;;;;5.10;3.58;;;;;;;18.84;100.00;99984.75;5050706;28;20060;-78
2022/07/05 09:10:31;;;;;;;3.83;3.20;;;;;;;18.68;100.00;99979.75;5050727;28;20037;-79
2022/07/05 09:12:57;;;;;;;3.30;2.80;;;;;;;18.61;100.00;99978.53;5053302;28;20033;-78
2022/07/05 09:15:23;;;;;;;6.15;3.45;;;;;;;18.56;100.00;99969.28;5052911;28;20029;-78
2022/07/05 09:17:49;;;;;;;6.70;3.85;;;;;;;18.60;100.00;99970.75;5052885;28;20021;-78
2022/07/05 09:20:19;;;;;;;4.03;3.63;;;;;;;18.49;100.00;99958.34;5054523;28;20032;-78
2022/07/05 09:22:56;;;;;;;4.32;3.50;;;;;;;18.59;100.00;99969.91;5053047;28;20381;-77
2022/07/05 09:25:24;;;;;;;3.20;2.90;;;;;;;18.76;100.00;99971.31;5054053;28;20058;-78
2022/07/05 09:28:06;;;;;;;4.47;3.10;;;;;;;18.95;100.00;99970.72;5053862;28;20483;-78
2022/07/05 09:30:31;;;;;;;6.03;2.67;;;;;;;19.14;100.00;99980.75;5054170;28;20480;-78
2022/07/05 09:33:06;;;;;;;4.13;2.38;;;;;;;19.34;100.00;99980.03;5054266;28;20024;-78
2022/07/05 09:35:33;;;;;;;3.05;2.45;;;;;;;19.59;100.00;99978.09;5054465;28;20071;-78
2022/07/05 09:37:58;;;;;;;3.50;3.10;;;;;;;19.66;100.00;99974.06;5052571;28;20048;-79
2022/07/05 09:40:24;;;;;;;2.80;2.60;;;;;;;19.87;100.00;99980.28;5053961;28;20068;-79
2022/07/05 09:42:49;;;;;;;2.70;2.30;;;;;;;20.02;100.00;99969.44;5054070;28;20029;-79
2022/07/05 09:45:26;;;;;;;2.92;2.50;;;;;;;20.18;100.00;99976.00;5053834;28;20037;-78
2022/07/05 09:47:54;;;;;;;3.13;2.50;;;;;;;20.19;100.00;99967.09;5053599;28;20021;-77
2022/07/05 09:50:36;;;;;;;2.67;2.47;;;;;;;20.25;100.00;99981.63;5053906;28;20025;-78
2022/07/05 09:53:03;;;;;;;3.03;2.67;;;;;;;20.26;100.00;99982.47;5052539;28;20027;-78
2022/07/05 09:55:28;;;;;;;3.13;2.83;;;;;;;20.20;100.00;99981.16;5054086;28;20031;-78
2022/07/05 09:57:54;;;;;;;3.60;3.10;;;;;;;20.15;100.00;99970.97;5053590;28;20438;-78
2022/07/05 10:00:22;;;;;;;3.38;2.80;;;;;;;20.22;100.00;99970.44;5053783;28;20025;-78
2022/07/05 10:02:51;;;;;;;4.40;3.05;;;;;;;20.32;100.00;99979.31;5053209;28;20056;-78
2022/07/05 10:05:22;;;;;;;4.20;2.75;;;;;;;20.37;100.00;99977.97;5053156;28;20104;-79
2022/07/05 10:07:56;;;;;;;4.85;2.72;;;;;;;20.38;100.00;99974.34;5053428;28;20029;-76
2022/07/05 10:10:23;;;;;;;5.43;3.20;;;;;;;20.40;100.00;99977.72;5053490;28;20017;-78
2022/07/05 10:12:52;;;;;;;3.67;3.38;;;;;;;20.31;100.00;99977.63;5053199;28;20476;-78
2022/07/05 10:15:20;;;;;;;4.85;3.60;;;;;;;20.26;100.00;99978.00;5053023;28;20036;-78
2022/07/05 10:18:00;;;;;;;5.00;4.30;;;;;;;20.33;100.00;99975.72;5053040;28;20025;-78
2022/07/05 10:20:43;;;;;;;4.50;4.10;;;;;;;20.33;100.00;99973.06;5052262;28;20036;-78
2022/07/05 10:23:15;;;;;;;7.45;4.60;;;;;;;20.23;100.00;99970.34;5070529;28;20036;-78
2022/07/05 10:25:43;;;;;;;4.75;4.30;;;;;;;20.12;100.00;99965.06;5070515;28;20078;-78
2022/07/05 10:28:09;;;;;;;5.25;4.75;;;;;;;20.06;100.00;99965.59;5070726;28;20504;-78
2022/07/05 10:30:36;;;;;;;4.90;4.40;;;;;;;20.00;100.00;99950.22;5054004;28;20458;-78
2022/07/05 10:33:03;;;;;;;17.73;4.53;;;;;;;20.02;100.00;99969.44;5053702;28;20044;-78
2022/07/05 10:35:29;;;;;;;5.85;5.20;;;;;;;20.10;100.00;99962.56;5070553;28;20597;-79
2022/07/05 10:37:56;;;;;;;4.72;4.28;;;;;;;20.26;100.00;99969.22;5070526;28;20041;-79
2022/07/05 10:40:22;;;;;;;5.90;4.60;;;;;;;20.34;100.00;99954.41;5070943;28;20116;-79
2022/07/05 10:42:55;;;;;;;6.32;4.57;;;;;;;20.48;100.00;99963.00;5070296;28;20132;-78
2022/07/05 10:45:32;;;;;;;5.32;3.83;;;;;;;20.42;100.00;99967.00;5053631;28;20036;-78
2022/07/05 10:48:10;;;;;;;5.22;3.50;;;;;;;20.35;100.00;99960.53;5070304;28;20504;-79
2022/07/05 10:50:53;;;;;;;4.65;3.63;;;;;;;20.29;100.00;99958.41;5070554;28;20090;-79
2022/07/05 10:53:49;;;;;;;4.05;3.53;;;;;;;20.38;100.00;99968.22;5067647;28;20033;-79
2022/07/05 10:56:14;;;;;;;4.75;3.60;;;;;;;20.40;100.00;99956.56;5052998;28;20029;-79
2022/07/05 10:58:44;;;;;;;4.03;3.47;;;;;;;20.37;100.00;99956.81;5051398;28;20128;-79
2022/07/05 11:01:15;;;;;;;4.23;3.20;;;;;;;20.37;100.00;99964.75;5052872;28;20053;-79
2022/07/05 11:03:48;;;;;;;4.97;3.33;;;;;;;20.28;100.00;99970.81;5052071;28;20051;-79
2022/07/05 11:06:27;;;;;;;3.63;3.15;;;;;;;20.13;100.00;99958.81;5052717;28;20097;-78
2022/07/05 11:08:59;;;;;;;3.25;2.95;;;;;;;19.97;99.27;99966.31;5052406;28;20028;-79
2022/07/05 11:11:26;;;;;;;3.55;2.97;;;;;;;19.81;99.50;99956.16;5052656;28;20029;-79
2022/07/05 11:13:54;;;;;;;4.43;3.10;;;;;;;19.76;98.60;99955.66;5052330;28;20025;-79
2022/07/05 11:16:22;;;;;;;3.13;2.83;;;;;;;19.74;100.00;99958.44;5051101;28;20058;-79
2022/07/05 11:18:50;;;;;;;3.03;2.72;;;;;;;19.88;100.00;99966.09;5069600;28;20032;-79
2022/07/05 11:21:20;;;;;;;2.63;2.42;;;;;;;19.99;99.08;99967.88;5053215;28;20541;-79
2022/07/05 11:23:46;;;;;;;3.67;3.08;;;;;;;20.14;96.52;99952.56;5052767;28;20121;-79
2022/07/05 11:26:15;;;;;;;3.15;2.60;;;;;;;20.32;93.20;99955.53;5069847;28;20029;-79
2022/07/05 11:28:43;;;;;;;2.72;2.53;;;;;;;20.51;94.11;99957.50;5052645;28;20036;-79
2022/07/05 11:31:09;;;;;;;4.60;2.65;;;;;;;20.75;93.62;99958.09;5053025;28;20028;-79
2022/07/05 11:33:37;;;;;;;4.65;3.28;;;;;;;20.75;91.30;99942.22;5069330;28;20043;-79